Time,TemperatureF,DewpointF,PressureIn,WindDirection,WindDirectionDegrees,WindSpeedMPH,WindSpeedGustMPH,Humidity,HourlyPrecipIn,Conditions,Clouds,dailyrainin,SoftwareType,DateUTC
2013-08-28 11:14:00,68.0,52.0,29.79,ENE,67,0.0,2.0,56,0.00,,,0.02,,2013-08-28 17:14:00,
2013-08-28 11:24:00,70.0,51.0,29.77,NE,40,0.0,3.0,51,0.00,,,0.02,,2013-08-28 17:24:00,
2013-08-28 12:12:00,73.0,49.0,29.76,ESE,111,0.0,5.0,43,0.00,,,0.02,,2013-08-28 18:12:00,
2013-08-28 12:42:00,75.0,46.0,29.75,ENE,67,1.0,4.0,36,0.00,,,0.02,,2013-08-28 18:42:00,
2013-08-28 13:12:00,75.0,44.0,29.74,South,173,0.0,5.0,33,0.00,,,0.02,,2013-08-28 19:12:00,
2013-08-28 13:22:00,74.0,45.0,29.74,NNE,18,0.0,8.0,36,0.00,,,0.02,,2013-08-28 19:22:00,
2013-08-28 13:42:00,71.0,47.0,29.74,North,360,1.0,6.0,42,0.00,,,0.02,,2013-08-28 19:42:00,
2013-08-28 13:52:00,73.0,44.0,29.73,North,355,2.0,7.0,36,0.00,,,0.02,,2013-08-28 19:52:00,
2013-08-28 14:12:00,75.0,44.0,29.73,WNW,292,1.0,5.0,33,0.00,,,0.02,,2013-08-28 20:12:00,
2013-08-28 14:43:00,74.0,46.0,29.73,NNE,18,1.0,6.0,37,0.00,,,0.02,,2013-08-28 20:43:00,
2013-08-28 14:52:00,72.0,48.0,29.73,NNW,327,1.0,6.0,42,0.00,,,0.02,,2013-08-28 20:52:00,
2013-08-28 15:12:00,71.0,48.0,29.72,NNE,28,1.0,8.0,44,0.00,,,0.02,,2013-08-28 21:12:00,
2013-08-28 15:22:00,69.0,48.0,29.72,NNE,13,2.0,6.0,47,0.00,,,0.02,,2013-08-28 21:22:00,
2013-08-28 15:57:00,68.0,46.0,29.73,NNW,335,1.0,5.0,45,0.00,,,0.02,,2013-08-28 21:57:00,
2013-08-28 16:15:00,68.0,47.0,29.73,WSW,250,1.0,9.0,47,0.00,,,0.02,,2013-08-28 22:15:00,
2013-08-28 16:25:00,67.0,47.0,29.72,NW,311,0.0,7.0,49,0.00,,,0.02,,2013-08-28 22:25:00,
2013-08-28 16:43:00,67.0,47.0,29.72,West,277,1.0,5.0,49,0.00,,,0.02,,2013-08-28 22:43:00,
2013-08-28 16:54:00,67.0,48.0,29.72,West,261,0.0,6.0,50,0.00,,,0.02,,2013-08-28 22:54:00,
2013-08-28 17:13:00,67.0,48.0,29.72,West,276,1.0,6.0,50,0.00,,,0.02,,2013-08-28 23:13:00,
2013-08-28 17:22:00,67.0,46.0,29.73,NNW,342,1.0,9.0,47,0.00,,,0.02,,2013-08-28 23:22:00,
2013-08-28 17:42:00,66.0,47.0,29.74,NNW,329,0.0,3.0,50,0.00,,,0.02,,2013-08-28 23:42:00,
2013-08-28 17:53:00,66.0,48.0,29.76,NNW,331,0.0,2.0,52,0.00,,,0.02,,2013-08-28 23:53:00,
2013-08-28 18:11:00,65.0,51.0,29.77,SE,135,0.0,5.0,60,0.02,,,0.04,,2013-08-29 00:11:00,
2013-08-28 19:12:00,55.0,46.0,29.80,NNW,331,0.0,10.0,71,0.08,,,0.12,,2013-08-29 01:12:00,
2013-08-28 19:52:00,52.0,49.0,29.83,NNW,333,0.0,6.0,88,0.05,,,0.16,,2013-08-29 01:52:00,
2013-08-28 20:11:00,51.0,48.0,29.82,WSW,253,0.0,7.0,88,0.05,,,0.17,,2013-08-29 02:11:00,
2013-08-28 20:22:00,50.0,46.0,29.82,WNW,299,2.0,8.0,86,0.05,,,0.17,,2013-08-29 02:22:00,
2013-08-28 21:11:00,51.0,46.0,29.87,WSW,258,1.0,3.0,83,0.00,,,0.16,,2013-08-29 03:11:00,
2013-08-28 21:23:00,52.0,46.0,29.88,West,277,0.0,3.0,80,0.00,,,0.16,,2013-08-29 03:23:00,
2013-08-28 21:45:00,53.0,47.0,29.90,NNW,329,0.0,3.0,79,0.00,,,0.16,,2013-08-29 03:45:00,
2013-08-28 21:57:00,53.0,47.0,29.90,NNW,329,0.0,3.0,79,0.00,,,0.16,,2013-08-29 03:57:00,
2013-08-28 22:18:00,51.0,47.0,29.92,WSW,239,1.0,6.0,86,0.03,,,0.19,,2013-08-29 04:18:00,
2013-08-28 22:28:00,50.0,46.0,29.92,West,275,0.0,4.0,86,0.05,,,0.21,,2013-08-29 04:28:00,
2013-08-28 22:45:00,50.0,47.0,29.92,WNW,296,0.0,2.0,90,0.07,,,0.23,,2013-08-29 04:45:00,
2013-08-28 22:54:00,49.0,46.0,29.91,NW,309,0.0,2.0,91,0.05,,,0.23,,2013-08-29 04:54:00,
2013-08-28 23:14:00,49.0,47.0,29.90,NW,309,0.0,1.0,93,0.03,,,0.23,,2013-08-29 05:14:00,
2013-08-28 23:23:00,49.0,47.0,29.90,SSE,153,0.0,3.0,93,0.01,,,0.23,,2013-08-29 05:23:00,
2013-08-28 23:42:00,49.0,47.0,29.90,South,169,0.0,3.0,94,0.00,,,0.23,,2013-08-29 05:42:00,
2013-08-28 23:52:00,49.0,47.0,29.89,South,169,0.0,0.0,94,0.00,,,0.23,,2013-08-29 05:52:00,